Elizabeth, IL

7:58 AM CDT on April 21, 2015 (GMT -0500)
Platteville Municipal | | Change Station
CLOSE
Current Station
Airport
Location: Platteville,
Elevation: 1024 ft
Nearby Weather Stations
Active Advisory: Wind Advisory

Elev 1024 ft 42.69 °N, 90.44 °W | Updated 23 minutes ago

Mostly Cloudy
Mostly Cloudy
39 °F
Feels Like 28 °F
N
23
Wind Variable Wind from West
Gusts 31 mph

Today
High -- | Low -- °F
--% Chance of Precip.
Yesterday
High -- | Low -- °F
Precip. -- in
6:10 AM 7:48 PM
Waxing Crescent, 10% visible
Pressure 29.59 in
Visibility 10.0 miles
Clouds Scattered Clouds 4000 ft
Overcast 4900 ft
Windchill 28 °F
Dew Point 30 °F
Humidity 70%
Rainfall 0.00 in
Snow Depth Not available.
UV 0 out of 12
Pollen 11.20 out of 12
Air Quality Not available.
Flu Activity Regional
METAR KPVB 211235Z AUTO 26020G27KT 10SM SCT040 OVC049 04/M01 A2959 RMK AO1 T00381012

More Conditions Fewer Conditions

Pressure 29.59 in
Visibility 10.0 miles
Clouds Scattered Clouds 4000 ft
Overcast 4900 ft
Windchill 28 °F
Dew Point 30 °F
Humidity 70%
Rainfall 0.00 in
Snow Depth Not available.
UV 0 out of 12
Pollen 11.20 out of 12
Air Quality Not available.
Flu Activity Regional
METAR KPVB 211235Z AUTO 26020G27KT 10SM SCT040 OVC049 04/M01 A2959 RMK AO1 T00381012

More Conditions Fewer Conditions

10-Day Weather Forecast

Almanac

Astronomy

Apr. 21, 2015 Rise Set
Actual Time
Civil Twilight
Nautical Twilight
Astronomical Twilight
Moon
Length of Visible Light
Length of Day
Tomorrow will be .
, % of the Moon is Illuminated

Today's Extremes

State Highs State Lows

Community

WunderPhotos

Upload Photos

1,815,361 photos uploaded!

WunderBlogs® & News

Nearby

Air Quality

  Air Quality AQ Index Pollutant
Not available.

Snow Depth

Station Depth Elevation

Earthquake Activity

City Distance Mag. Time & Date
Minimum magnitude displayed is 2.5.

Coastal Water Temperatures

Place Temperature

Stations

Nearby Weather Stations

Station Location Temp. Windchill Dew Point Humidity Wind Precip. Elev Updated Type
                   
Wind Advisory
Statement as of 4:12 AM CDT on April 21, 2015

... Wind Advisory in effect from 11 am this morning to 7 PM CDT
this evening...

The National Weather Service in Quad Cities has issued a Wind
Advisory... which is in effect from 11 am this morning to 7 PM CDT
this evening.

* Winds... northwest 25 to 30 mph with gusts up to 45 mph.

* Timing... late morning and afternoon.

* Impacts... strong winds can make driving difficult at
times... especially for high profile vehicles on north... south
roadways. Unsecured outdoor items may also be blown around.

Precautionary/preparedness actions...

A Wind Advisory means that winds of 30 mph or greater are
expected... which can make driving difficult... especially for high
profile vehicles. Use extra caution if you are traveling.